Time;durP1;ratioP1;P1;durP2;ratioP2;P2;SDS_P1;SDS_P2;PMS_P1;PMS_P2;Temp;Humidity;BMP_temperature;BMP_pressure;BME280_temperature;BME280_humidity;BME280_pressure;Samples;Min_cycle;Max_cycle;Signal;HPM_P1;HPM_P2
2021/05/09 06:15:19;;;;;;;1999.90;999.90;;;16.00;99.90;;;;;;4919978;29;20193;-93
2021/05/09 06:24:34;;;;;;;1999.90;999.90;;;15.30;99.90;;;;;;4920283;29;20181;-89
2021/05/09 06:27:23;;;;;;;1999.90;999.90;;;15.30;99.90;;;;;;4919343;29;20186;-93
2021/05/09 06:37:33;;;;;;;;;;;;;;;;;;;;;
2021/05/09 06:43:36;;;;;;;1999.90;999.90;;;15.80;99.90;;;;;;4927735;29;20203;-89
2021/05/09 06:46:46;;;;;;;1999.90;999.90;;;15.70;99.90;;;;;;4891907;29;20654;-90
2021/05/09 06:49:05;;;;;;;1999.90;999.90;;;15.60;99.90;;;;;;4915396;29;20193;-91
2021/05/09 06:51:33;;;;;;;1999.90;999.90;;;15.60;99.90;;;;;;4901510;29;20214;-91
2021/05/09 06:54:00;;;;;;;1999.90;999.90;;;15.60;99.90;;;;;;4901305;29;20189;-90
2021/05/09 06:56:27;;;;;;;1999.90;999.90;;;15.50;99.90;;;;;;4917160;29;20189;-91
2021/05/09 06:58:55;;;;;;;1999.90;999.90;;;15.80;99.90;;;;;;4916854;29;20248;-91
2021/05/09 07:01:31;;;;;;;1999.90;999.90;;;16.00;99.90;;;;;;4901262;29;20208;-91
2021/05/09 07:04:05;;;;;;;1999.90;999.90;;;16.30;99.90;;;;;;4917169;29;20186;-91
2021/05/09 07:06:34;;;;;;;1999.90;999.90;;;16.70;99.90;;;;;;4916870;29;20291;-90
2021/05/09 07:09:09;;;;;;;1999.90;999.90;;;16.90;99.90;;;;;;4900851;29;20190;-90
2021/05/09 07:11:36;;;;;;;1999.90;999.90;;;17.10;99.90;;;;;;4919826;29;20223;-89
2021/05/09 07:14:02;;;;;;;1999.90;999.90;;;17.30;99.90;;;;;;4936860;29;20182;-92
2021/05/09 07:16:28;;;;;;;1999.90;999.90;;;17.60;99.90;;;;;;4919720;29;20296;-93
2021/05/09 07:18:59;;;;;;;1999.90;999.90;;;17.80;99.90;;;;;;4920193;29;20181;-91
2021/05/09 07:21:31;;;;;;;1999.90;999.90;;;18.10;99.90;;;;;;4920468;29;20208;-90
2021/05/09 07:24:00;;;;;;;1999.90;999.90;;;18.10;99.90;;;;;;4921599;29;20212;-91
2021/05/09 07:26:29;;;;;;;1999.90;999.90;;;18.30;99.90;;;;;;4926667;29;20181;-92
2021/05/09 07:29:24;;;;;;;1999.90;999.90;;;18.30;99.90;;;;;;4920219;29;20204;-92
2021/05/09 07:31:52;;;;;;;1999.90;999.90;;;18.30;99.90;;;;;;4916372;29;20217;-91
2021/05/09 07:34:20;;;;;;;1999.90;999.90;;;18.40;99.90;;;;;;4920062;29;20208;-91
2021/05/09 07:36:48;;;;;;;1999.90;999.90;;;18.60;99.90;;;;;;4920099;29;20187;-91
2021/05/09 07:39:14;;;;;;;1999.90;999.90;;;18.50;99.90;;;;;;4920165;29;20189;-91
2021/05/09 07:41:48;;;;;;;1999.90;999.90;;;18.60;99.90;;;;;;4920448;29;20185;-92
2021/05/09 07:44:21;;;;;;;1999.90;999.90;;;18.60;99.90;;;;;;4919958;29;20181;-93
2021/05/09 07:46:54;;;;;;;1999.90;999.90;;;19.00;99.90;;;;;;4919592;29;20217;-93
2021/05/09 07:49:25;;;;;;;1999.90;999.90;;;19.40;99.90;;;;;;4920624;29;20256;-92
2021/05/09 09:46:32;;;;;;;1999.90;999.90;;;22.90;99.90;;;;;;5181285;23;20244;-89
2021/05/09 09:49:33;;;;;;;1999.90;999.90;;;22.80;99.90;;;;;;4938560;29;20189;-89
2021/05/09 09:55:40;;;;;;;;;;;;;;;;;;;;;
2021/05/09 10:16:50;;;;;;;1999.90;999.90;;;22.90;99.90;;;;;;5407674;23;20233;-90
2021/05/09 10:19:21;;;;;;;1999.90;999.90;;;22.90;99.90;;;;;;4921626;29;20196;-89
2021/05/09 10:21:51;;;;;;;1999.90;999.90;;;22.60;99.90;;;;;;4921624;29;20625;-90
2021/05/09 10:24:19;;;;;;;1999.90;999.90;;;22.50;99.90;;;;;;4921866;29;20186;-91
2021/05/09 10:26:50;;;;;;;1999.90;999.90;;;22.50;99.90;;;;;;4921127;29;20268;-91
2021/05/09 10:29:38;;;;;;;1999.90;999.90;;;22.60;99.90;;;;;;4921697;29;20233;-92
2021/05/09 10:32:19;;;;;;;1999.90;999.90;;;22.50;99.90;;;;;;4920838;29;20216;-90
2021/05/09 10:35:07;;;;;;;1999.90;999.90;;;22.80;99.90;;;;;;4920914;29;20189;-89
2021/05/09 10:37:58;;;;;;;1999.90;999.90;;;22.70;99.90;;;;;;4920992;29;20181;-93
2021/05/09 10:40:36;;;;;;;1999.90;999.90;;;22.60;99.90;;;;;;4930469;29;20188;-90
2021/05/09 12:10:10;;;;;;;1999.90;999.90;;;23.40;99.90;;;;;;5164771;23;20224;-87
2021/05/09 12:12:37;;;;;;;1999.90;999.90;;;23.40;99.90;;;;;;4912435;29;20316;-85
2021/05/09 12:15:11;;;;;;;1999.90;999.90;;;23.80;99.90;;;;;;4911436;29;20178;-87
2021/05/09 12:17:45;;;;;;;1999.90;999.90;;;24.00;99.90;;;;;;4944253;28;20177;-87
2021/05/09 12:20:31;;;;;;;1999.90;999.90;;;23.80;99.90;;;;;;4944673;29;20189;-86
2021/05/09 12:23:03;;;;;;;1999.90;999.90;;;23.80;99.90;;;;;;4930141;29;20539;-87
2021/05/09 12:25:39;;;;;;;1999.90;999.90;;;24.00;99.90;;;;;;4930615;29;20177;-91
2021/05/09 12:28:12;;;;;;;1999.90;999.90;;;24.40;99.90;;;;;;4913168;29;20190;-90
2021/05/09 12:30:43;;;;;;;1999.90;999.90;;;24.80;99.90;;;;;;4929279;29;20210;-90
2021/05/09 12:33:09;;;;;;;1999.90;999.90;;;25.10;99.90;;;;;;4927876;29;20214;-87
2021/05/09 12:35:46;;;;;;;1999.90;999.90;;;24.60;99.90;;;;;;4912759;29;20184;-89
2021/05/09 15:52:08;;;;;;;;;;;;;;;;;;;;;
2021/05/09 15:54:57;;;;;;;;;;;;;;;;;;;;;
2021/05/09 15:57:24;;;;;;;1999.90;999.90;;;25.90;99.90;;;;;;4936800;29;20575;-93
2021/05/09 16:00:24;;;;;;;;;;;;;;;;;;;;;
2021/05/09 16:11:52;;;;;;;;;;;;;;;;;;;;;
2021/05/09 16:14:26;;;;;;;1999.90;999.90;;;25.20;99.90;;;;;;4937118;29;20182;-90
2021/05/09 16:16:52;;;;;;;1999.90;999.90;;;25.20;99.90;;;;;;4919448;29;20590;-88
2021/05/09 16:19:20;;;;;;;1999.90;999.90;;;25.30;99.90;;;;;;4924002;29;20230;-88
2021/05/09 16:21:50;;;;;;;1999.90;999.90;;;25.20;99.90;;;;;;4929271;29;20196;-88
2021/05/09 16:24:22;;;;;;;1999.90;999.90;;;25.20;99.90;;;;;;4935815;29;20192;-89
2021/05/09 16:26:50;;;;;;;1999.90;999.90;;;25.30;99.90;;;;;;4934632;29;20256;-89
2021/05/09 16:29:16;;;;;;;1999.90;999.90;;;25.30;99.90;;;;;;4923750;29;20264;-90
2021/05/09 16:31:42;;;;;;;1999.90;999.90;;;25.40;99.90;;;;;;4954283;29;20192;-90
2021/05/09 16:34:08;;;;;;;1999.90;999.90;;;25.30;99.90;;;;;;4919418;29;20692;-90
2021/05/09 16:36:33;;;;;;;1999.90;999.90;;;25.30;99.90;;;;;;4951132;29;20182;-89
2021/05/09 16:39:03;;;;;;;1999.90;999.90;;;25.30;99.90;;;;;;4918872;29;20192;-91
2021/05/09 16:41:38;;;;;;;1999.90;999.90;;;25.30;99.90;;;;;;4951379;29;20649;-89
2021/05/09 16:44:04;;;;;;;1999.90;999.90;;;25.20;99.90;;;;;;4936538;29;20177;-86
2021/05/09 16:46:33;;;;;;;1999.90;999.90;;;25.00;99.90;;;;;;4918405;29;20189;-89
2021/05/09 16:48:59;;;;;;;1999.90;999.90;;;25.10;99.90;;;;;;4919167;29;20212;-89
2021/05/09 16:51:29;;;;;;;1999.90;999.90;;;25.10;99.90;;;;;;4918719;29;20220;-90
2021/05/09 16:54:07;;;;;;;1999.90;999.90;;;25.10;99.90;;;;;;4935658;29;20201;-88
2021/05/09 16:56:35;;;;;;;1999.90;999.90;;;25.10;99.90;;;;;;4901988;29;20549;-90
2021/05/09 16:59:14;;;;;;;1999.90;999.90;;;25.00;99.90;;;;;;4924865;29;20185;-91
2021/05/09 17:02:26;;;;;;;1999.90;999.90;;;24.90;99.90;;;;;;4932544;29;20660;-90
2021/05/09 17:05:14;;;;;;;1999.90;999.90;;;24.80;99.90;;;;;;4932676;29;20190;-89
2021/05/09 17:07:54;;;;;;;1999.90;999.90;;;24.70;99.90;;;;;;4898713;29;20182;-90
2021/05/09 17:10:30;;;;;;;1999.90;999.90;;;24.80;99.90;;;;;;4927323;29;20193;-89
2021/05/09 17:13:06;;;;;;;1999.90;999.90;;;24.80;99.90;;;;;;4903312;29;20214;-90
2021/05/09 17:15:37;;;;;;;1999.90;999.90;;;24.70;99.90;;;;;;4903783;29;20660;-91
2021/05/09 17:18:05;;;;;;;1999.90;999.90;;;24.70;99.90;;;;;;4903969;29;20190;-91
2021/05/09 17:20:47;;;;;;;;;;;;;;;;;;;;;
2021/05/09 17:23:16;;;;;;;1999.90;999.90;;;24.60;99.90;;;;;;4931965;29;20246;-92
2021/05/09 17:29:14;;;;;;;;;;;;;;;;;;;;;
2021/05/09 17:31:47;;;;;;;1999.90;999.90;;;24.50;99.90;;;;;;4928159;29;20170;-91
2021/05/09 17:34:25;;;;;;;1999.90;999.90;;;24.40;99.90;;;;;;4906951;29;20233;-89
2021/05/09 17:39:39;;;;;;;1999.90;999.90;;;24.50;99.90;;;;;;4914131;29;20285;-89
2021/05/09 17:42:26;;;;;;;1999.90;999.90;;;24.50;99.90;;;;;;4938559;29;20264;-90
2021/05/09 17:44:57;;;;;;;1999.90;999.90;;;24.40;99.90;;;;;;4921681;29;20197;-91
2021/05/09 17:47:31;;;;;;;1999.90;999.90;;;24.40;99.90;;;;;;4921903;29;20189;-92
2021/05/09 17:56:17;;;;;;;1999.90;999.90;;;24.20;99.90;;;;;;6011120;23;20185;-91
2021/05/09 17:58:43;;;;;;;1999.90;999.90;;;24.30;99.90;;;;;;4920667;29;20201;-92
2021/05/09 18:01:24;;;;;;;;;;;;;;;;;;;;;
2021/05/09 18:03:52;;;;;;;1999.90;999.90;;;24.10;99.90;;;;;;4938940;29;20187;-92
2021/05/09 18:06:34;;;;;;;;;;;;;;;;;;;;;
2021/05/09 18:15:41;;;;;;;1999.90;999.90;;;23.80;99.90;;;;;;4875404;29;20184;-93
2021/05/09 18:19:28;;;;;;;;;;;;;;;;;;;;;
